KSDF Airport Diagram

We have created a template for each of the higher traffic airports in the vZID airspace. They include KCMH, KCRW, KCVG, KDAY, KIND, KLEX and KSDF. You wil find usefull information including the airport diagram, weather, and specific airport procedures.

KSDF Weather

[Source: ADDS]
METAR
KSDF 300156Z 09013G18KT 10SM BKN250 16/08 A2999 RMK AO2 SLP153 T01610083 =
TAF
KSDF 292326Z 3000/3106 12010KT P6SM FEW190 FM301300 16011G17KT P6SM BKN060 FM301700 18017G25KT P6SM VCSH OVC035 FM310100 21014KT P6SM VCTS OVC035CB =

SDF Operations

Calm Wind Configuration is runways 17L and 17R

Runway 17L typically departs north and east

Runway 17R typicall departs south and west

 

JSN Epic template designed by JoomlaShine.com